createdAt,value
2018-12-20T00:00:58.651Z,101885.20
2018-12-20T00:03:27.258Z,101891.07
2018-12-20T00:05:56.046Z,101893.29
2018-12-20T00:08:24.740Z,101893.29
2018-12-20T00:10:53.509Z,101889.72
2018-12-20T00:13:22.203Z,101894.28
2018-12-20T00:15:50.845Z,101893.89
2018-12-20T00:18:19.507Z,101888.02
2018-12-20T00:20:48.244Z,101890.72
2018-12-20T00:23:16.963Z,101890.81
2018-12-20T00:25:45.901Z,101889.46
2018-12-20T00:28:14.581Z,101894.37
2018-12-20T00:30:43.238Z,101894.49
2018-12-20T00:33:12.091Z,101896.31
2018-12-20T00:35:40.790Z,101894.97
2018-12-20T00:38:09.538Z,101896.80
2018-12-20T00:40:38.259Z,101897.27
2018-12-20T00:43:06.895Z,101898.63
2018-12-20T00:45:35.558Z,101901.80
2018-12-20T00:48:04.288Z,101903.14
2018-12-20T00:50:33.210Z,101902.30
2018-12-20T00:53:01.800Z,101909.04
2018-12-20T00:55:30.464Z,101907.69
2018-12-20T00:57:59.180Z,101909.96
2018-12-20T01:00:27.899Z,101913.08
2018-12-20T01:02:57.160Z,101917.59
2018-12-20T01:05:25.865Z,101922.08
2018-12-20T01:07:54.600Z,101919.39
2018-12-20T01:10:23.207Z,101924.39
2018-12-20T01:12:51.870Z,101922.68
2018-12-20T01:15:20.435Z,101924.03
2018-12-20T01:17:49.053Z,101924.03
2018-12-20T01:20:17.667Z,101924.51
2018-12-20T01:22:46.404Z,101926.33
2018-12-20T01:25:15.106Z,101927.68
2018-12-20T01:27:43.969Z,101924.12
2018-12-20T01:30:12.883Z,101923.28
2018-12-20T01:32:41.706Z,101921.55
2018-12-20T01:35:10.561Z,101924.72
2018-12-20T01:37:39.423Z,101918.47
2018-12-20T01:40:08.505Z,101926.55
2018-12-20T01:42:37.268Z,101928.41
2018-12-20T01:45:06.140Z,101933.27
2018-12-20T01:47:34.857Z,101933.79
2018-12-20T01:50:03.850Z,101927.05
2018-12-20T01:52:32.719Z,101927.05
2018-12-20T01:55:01.397Z,101928.87
2018-12-20T01:57:30.223Z,101930.22
2018-12-20T01:59:58.982Z,101929.36
2018-12-20T02:02:27.691Z,101931.19
2018-12-20T02:04:56.394Z,101932.05
2018-12-20T02:07:25.393Z,101932.53
2018-12-20T02:09:54.205Z,101937.05
2018-12-20T02:12:22.811Z,101930.80
2018-12-20T02:14:51.432Z,101934.35
2018-12-20T02:17:20.057Z,101935.82
2018-12-20T02:19:48.767Z,101938.87
2018-12-20T02:22:17.474Z,101932.65
2018-12-20T02:24:46.249Z,101942.91
2018-12-20T02:27:15.252Z,101938.52
2018-12-20T02:29:44.109Z,101938.03
2018-12-20T02:32:12.760Z,101934.47
2018-12-20T02:34:41.485Z,101939.86
2018-12-20T02:37:10.103Z,101936.69
2018-12-20T02:39:38.754Z,101932.26
2018-12-20T02:42:07.744Z,101929.56
2018-12-20T02:44:36.529Z,101926.39
2018-12-20T02:47:05.276Z,101939.86
2018-12-20T02:49:33.957Z,101941.20
2018-12-20T02:52:02.654Z,101934.47
2018-12-20T02:54:31.351Z,101941.20
2018-12-20T02:57:00.151Z,101942.08
2018-12-20T02:59:29.089Z,101943.42
2018-12-20T03:01:57.923Z,101943.03
2018-12-20T03:04:26.587Z,101939.86
2018-12-20T03:06:55.483Z,101933.12
2018-12-20T03:09:24.268Z,101928.09
2018-12-20T03:11:52.859Z,101931.78
2018-12-20T03:14:21.635Z,101924.57
2018-12-20T03:16:50.442Z,101925.41
2018-12-20T03:19:19.290Z,101919.66
2018-12-20T03:21:48.061Z,101931.30
2018-12-20T03:24:17.050Z,101939.38
2018-12-20T03:26:45.867Z,101938.87
2018-12-20T03:29:14.730Z,101930.80
2018-12-20T03:31:43.381Z,101930.44
2018-12-20T03:34:12.063Z,101932.65
2018-12-20T03:36:40.944Z,101930.80
2018-12-20T03:39:09.658Z,101935.70
2018-12-20T03:41:38.244Z,101933.00
2018-12-20T03:44:06.835Z,101937.05
2018-12-20T03:46:35.613Z,101939.27
2018-12-20T03:49:04.503Z,101939.65
2018-12-20T03:51:33.561Z,101943.69
2018-12-20T03:54:02.503Z,101946.38
2018-12-20T03:56:31.381Z,101942.70
2018-12-20T03:59:00.159Z,101946.73
2018-12-20T04:01:28.813Z,101946.17
2018-12-20T04:03:57.515Z,101948.86
2018-12-20T04:06:26.298Z,101944.83
2018-12-20T04:08:55.058Z,101949.70
2018-12-20T04:11:23.978Z,101942.97
2018-12-20T04:13:52.722Z,101944.70
2018-12-20T04:16:21.455Z,101950.09
2018-12-20T04:18:50.050Z,101948.27
2018-12-20T04:21:18.652Z,101947.88
2018-12-20T04:23:47.440Z,101948.74
2018-12-20T04:26:16.158Z,101953.17
2018-12-20T04:28:44.847Z,101951.31
2018-12-20T04:31:13.557Z,101948.63
2018-12-20T04:33:42.285Z,101947.79
2018-12-20T04:36:11.205Z,101950.48
2018-12-20T04:38:40.186Z,101944.23
2018-12-20T04:41:08.879Z,101939.20
2018-12-20T04:43:37.775Z,101945.93
2018-12-20T04:46:06.746Z,101944.58
2018-12-20T04:48:35.764Z,101951.44
2018-12-20T04:51:04.412Z,101950.48
2018-12-20T04:53:33.006Z,101948.63
2018-12-20T04:56:01.718Z,101951.83
2018-12-20T04:58:30.474Z,101949.13
2018-12-20T05:00:59.169Z,101954.01
2018-12-20T05:03:27.738Z,101949.97
2018-12-20T05:05:56.396Z,101957.69
2018-12-20T05:08:25.240Z,101959.04
2018-12-20T05:10:53.901Z,101945.58
2018-12-20T05:13:22.710Z,101952.31
2018-12-20T05:15:55.964Z,101946.05
2018-12-20T05:18:21.906Z,101952.31
2018-12-20T05:20:50.529Z,101949.61
2018-12-20T05:23:19.344Z,101943.84
2018-12-20T05:25:48.060Z,101946.53
2018-12-20T05:28:16.790Z,101950.57
2018-12-20T05:30:45.690Z,101948.36
2018-12-20T05:33:14.549Z,101952.78
2018-12-20T05:35:43.105Z,101943.84
2018-12-20T05:38:11.862Z,101947.52
2018-12-20T05:40:40.690Z,101948.36
2018-12-20T05:43:09.443Z,101948.36
2018-12-20T05:45:38.061Z,101939.44
2018-12-20T05:48:06.721Z,101942.13
2018-12-20T05:50:35.489Z,101941.63
2018-12-20T05:53:04.162Z,101948.00
2018-12-20T05:55:32.817Z,101953.38
2018-12-20T05:58:01.733Z,101948.95
2018-12-20T06:00:30.515Z,101949.83
2018-12-20T06:02:59.409Z,101944.44
2018-12-20T06:05:28.275Z,101950.30
2018-12-20T06:07:56.983Z,101950.78
2018-12-20T06:10:25.908Z,101953.86
2018-12-20T06:12:54.837Z,101948.95
2018-12-20T06:15:23.661Z,101948.59
2018-12-20T06:17:52.695Z,101952.99
2018-12-20T06:20:21.562Z,101950.30
2018-12-20T06:22:50.323Z,101944.56
2018-12-20T06:25:21.323Z,101948.09
2018-12-20T06:27:49.605Z,101944.56
2018-12-20T06:30:18.209Z,101952.64
2018-12-20T06:32:46.940Z,101953.11
2018-12-20T06:35:15.508Z,101948.20
2018-12-20T06:37:44.084Z,101962.06
2018-12-20T06:40:12.879Z,101956.28
2018-12-20T06:42:41.490Z,101957.16
2018-12-20T06:45:11.034Z,101950.42
2018-12-20T06:47:39.664Z,101949.08
2018-12-20T06:50:08.343Z,101957.63
2018-12-20T06:52:37.109Z,101958.50
2018-12-20T06:55:06.022Z,101956.28
2018-12-20T06:57:34.624Z,101946.86
2018-12-20T07:00:03.343Z,101953.59
2018-12-20T07:02:31.997Z,101956.28
2018-12-20T07:05:00.570Z,101958.02
2018-12-20T07:07:29.216Z,101960.33
2018-12-20T07:09:57.852Z,101964.36
2018-12-20T07:12:26.460Z,101958.50
2018-12-20T07:14:55.044Z,101957.16
2018-12-20T07:17:23.631Z,101967.53
2018-12-20T07:19:52.317Z,101962.15
2018-12-20T07:22:21.637Z,101961.28
2018-12-20T07:24:50.420Z,101956.77
2018-12-20T07:27:19.048Z,101961.67
2018-12-20T07:29:47.747Z,101961.28
2018-12-20T07:32:24.793Z,101954.55
2018-12-20T07:34:47.965Z,101965.80
2018-12-20T07:37:16.920Z,101965.44
2018-12-20T07:39:45.655Z,101966.31
2018-12-20T07:42:14.340Z,101962.36
2018-12-20T07:44:42.947Z,101968.13
2018-12-20T07:47:11.561Z,101963.62
2018-12-20T07:49:40.158Z,101958.31
2018-12-20T07:52:08.747Z,101960.05
2018-12-20T07:54:37.412Z,101951.59
2018-12-20T07:57:06.020Z,101965.05
2018-12-20T07:59:34.682Z,101967.74
2018-12-20T08:02:03.402Z,101953.05
2018-12-20T08:06:59.525Z,101966.40
2018-12-20T08:09:28.151Z,101962.36
2018-12-20T08:11:56.816Z,101969.00
2018-12-20T08:14:25.561Z,101973.52
2018-12-20T08:16:54.277Z,101967.66
2018-12-20T08:19:22.881Z,101972.17
2018-12-20T08:21:51.595Z,101968.13
2018-12-20T08:24:20.266Z,101968.61
2018-12-20T08:26:48.870Z,101977.08
2018-12-20T08:29:17.525Z,101978.91
2018-12-20T08:31:46.326Z,101976.96
2018-12-20T08:34:15.059Z,101976.96
2018-12-20T08:36:43.708Z,101984.08
2018-12-20T08:39:12.336Z,101986.78
2018-12-20T08:41:40.951Z,101982.27
2018-12-20T08:44:09.607Z,101982.73
2018-12-20T08:46:41.352Z,101991.17
2018-12-20T08:49:09.983Z,101981.88
2018-12-20T08:51:38.583Z,101977.44
2018-12-20T08:54:07.182Z,101980.13
2018-12-20T08:56:35.822Z,101985.04
2018-12-20T08:59:04.662Z,101998.11
2018-12-20T09:01:33.271Z,101988.33
2018-12-20T09:04:01.919Z,101993.23
2018-12-20T09:06:30.579Z,101988.81
2018-12-20T09:08:59.354Z,101983.91
2018-12-20T09:11:27.998Z,101988.81
2018-12-20T09:16:24.169Z,101984.02
2018-12-20T09:18:52.803Z,101982.67
2018-12-20T09:21:21.398Z,101976.42
2018-12-20T09:23:50.055Z,101979.59
2018-12-20T09:26:18.684Z,101975.55
2018-12-20T09:28:47.383Z,101984.11
2018-12-20T09:31:16.060Z,101972.86
2018-12-20T09:33:44.705Z,101980.06
2018-12-20T09:36:13.574Z,101980.58
2018-12-20T09:38:42.149Z,101974.68
2018-12-20T09:41:11.082Z,101981.41
2018-12-20T09:43:39.732Z,101975.28
2018-12-20T09:46:08.505Z,101976.54
2018-12-20T09:48:37.177Z,101983.75
2018-12-20T09:51:05.902Z,101977.50
2018-12-20T09:53:34.597Z,101980.06
2018-12-20T09:56:03.262Z,101975.67
2018-12-20T09:58:32.418Z,101970.29
2018-12-20T10:01:01.115Z,101971.63
2018-12-20T10:03:29.835Z,101970.77
2018-12-20T10:05:58.552Z,101968.94
2018-12-20T10:08:27.250Z,101960.86
2018-12-20T10:10:55.900Z,101928.81
2018-12-20T10:13:24.652Z,101958.17
2018-12-20T10:15:53.316Z,101964.03
2018-12-20T10:18:21.930Z,101965.26
2018-12-20T10:20:50.642Z,101966.25
2018-12-20T10:23:19.328Z,101956.34
2018-12-20T10:25:47.953Z,101959.39
2018-12-20T10:28:16.688Z,101959.88
2018-12-20T10:30:45.307Z,101948.15
2018-12-20T10:33:13.965Z,101953.05
2018-12-20T10:35:42.727Z,101944.50
2018-12-20T10:40:38.973Z,101943.03
2018-12-20T10:43:07.610Z,101939.47
2018-12-20T10:45:36.208Z,101945.25
2018-12-20T10:48:05.179Z,101947.94
2018-12-20T10:50:33.806Z,101949.28
2018-12-20T10:53:02.509Z,101945.60
2018-12-20T10:55:31.253Z,101946.47
2018-12-20T10:57:59.912Z,101942.43
2018-12-20T11:00:32.787Z,101947.34
2018-12-20T11:03:06.783Z,101945.99
2018-12-20T11:05:40.656Z,101941.08
2018-12-20T11:08:14.546Z,101939.73
2018-12-20T11:10:43.244Z,101940.61
2018-12-20T11:13:17.342Z,101924.92
2018-12-20T11:15:46.006Z,101922.23
2018-12-20T11:18:14.713Z,101929.84
2018-12-20T11:20:43.313Z,101923.58
2018-12-20T11:23:12.151Z,101921.76
2018-12-20T11:25:40.762Z,101920.80
2018-12-20T11:28:09.408Z,101919.54
2018-12-20T11:30:38.056Z,101923.97
2018-12-20T11:33:06.783Z,101918.11
2018-12-20T11:35:35.427Z,101911.37
2018-12-20T11:38:04.255Z,101905.98
2018-12-20T11:40:32.907Z,101905.98
2018-12-20T11:43:01.564Z,101902.42
2018-12-20T11:45:30.126Z,101898.00
2018-12-20T11:47:58.755Z,101903.30
2018-12-20T11:50:27.378Z,101895.31
2018-12-20T11:52:56.038Z,101896.17
2018-12-20T11:55:24.676Z,101898.39
2018-12-20T11:57:53.319Z,101893.48
2018-12-20T12:00:22.093Z,101887.14
2018-12-20T12:02:50.728Z,101883.58
2018-12-20T12:05:19.380Z,101885.41
2018-12-20T12:07:47.991Z,101882.71
2018-12-20T12:10:16.692Z,101882.23
2018-12-20T12:12:45.385Z,101884.45
2018-12-20T12:15:14.074Z,101878.67
2018-12-20T12:17:42.723Z,101870.11
2018-12-20T12:20:11.488Z,101872.33
2018-12-20T12:22:40.255Z,101876.37
2018-12-20T12:25:09.138Z,101873.67
2018-12-20T12:27:37.807Z,101869.64
2018-12-20T12:30:07.897Z,101864.73
2018-12-20T12:32:36.582Z,101866.07
2018-12-20T12:35:05.519Z,101868.77
2018-12-20T12:37:34.152Z,101867.90
2018-12-20T12:40:02.955Z,101870.50
2018-12-20T12:42:31.564Z,101873.28
2018-12-20T12:45:00.417Z,101876.37
2018-12-20T12:47:34.373Z,101869.64
2018-12-20T12:50:03.079Z,101870.98
2018-12-20T12:52:31.706Z,101873.28
2018-12-20T12:55:00.416Z,101877.80
2018-12-20T12:57:29.128Z,101868.29
2018-12-20T12:59:57.763Z,101866.07
2018-12-20T13:02:26.471Z,101866.94
2018-12-20T13:04:55.112Z,101864.25
2018-12-20T13:07:23.704Z,101858.00
2018-12-20T13:09:52.386Z,101861.16
2018-12-20T13:12:21.059Z,101869.64
2018-12-20T13:14:49.887Z,101864.34
2018-12-20T13:17:18.500Z,101870.50
2018-12-20T13:19:47.095Z,101864.25
2018-12-20T13:22:15.767Z,101869.64
2018-12-20T13:24:44.425Z,101864.73
2018-12-20T13:27:14.332Z,101856.17
2018-12-20T13:29:43.039Z,101853.95
2018-12-20T13:32:11.679Z,101851.74
2018-12-20T13:34:40.335Z,101860.69
2018-12-20T13:37:15.828Z,101853.95
2018-12-20T13:39:39.622Z,101854.44
2018-12-20T13:42:08.223Z,101848.57
2018-12-20T13:44:36.918Z,101854.44
2018-12-20T13:47:05.592Z,101849.92
2018-12-20T13:49:35.260Z,101846.75
2018-12-20T13:52:04.422Z,101850.39
2018-12-20T13:54:33.010Z,101837.80
2018-12-20T13:57:01.869Z,101838.67
2018-12-20T13:59:30.616Z,101836.45
2018-12-20T14:01:59.237Z,101834.72
2018-12-20T14:04:27.986Z,101839.63
2018-12-20T14:06:56.605Z,101840.10
2018-12-20T14:09:25.271Z,101840.97
2018-12-20T14:11:54.027Z,101836.94
2018-12-20T14:14:22.746Z,101842.31
2018-12-20T14:16:52.402Z,101844.53
2018-12-20T14:19:21.136Z,101835.11
2018-12-20T14:21:49.916Z,101834.72
2018-12-20T14:24:18.621Z,101830.80
2018-12-20T14:26:47.400Z,101848.66
2018-12-20T14:29:16.269Z,101841.58
2018-12-20T14:31:45.006Z,101848.78
2018-12-20T14:34:14.113Z,101845.61
2018-12-20T14:36:42.817Z,101843.40
2018-12-20T14:39:11.556Z,101847.83
2018-12-20T14:41:40.307Z,101833.11
2018-12-20T14:44:09.007Z,101837.15
2018-12-20T14:46:37.765Z,101835.80
2018-12-20T14:49:06.473Z,101846.56
2018-12-20T14:51:35.267Z,101837.75
2018-12-20T14:54:04.179Z,101834.58
2018-12-20T14:56:32.832Z,101834.09
2018-12-20T15:01:29.160Z,101838.49
2018-12-20T15:03:57.904Z,101831.77
2018-12-20T15:06:26.696Z,101830.06
2018-12-20T15:08:55.424Z,101827.72
2018-12-20T15:13:51.774Z,101830.41
2018-12-20T15:16:20.448Z,101828.72
2018-12-20T15:21:16.896Z,101830.06
2018-12-20T15:23:45.639Z,101830.06
2018-12-20T15:28:41.995Z,101822.34
2018-12-20T15:31:10.652Z,101826.02
2018-12-20T15:33:39.411Z,101821.98
2018-12-20T15:38:35.711Z,101812.17
2018-12-20T15:41:04.543Z,101820.98
2018-12-20T15:46:01.854Z,101817.55
2018-12-20T15:48:30.559Z,101823.41
2018-12-20T15:50:59.214Z,101822.46
2018-12-20T15:55:55.734Z,101814.38
2018-12-20T15:58:24.589Z,101821.11
2018-12-20T16:03:21.148Z,101816.20
2018-12-20T16:05:49.887Z,101813.91
2018-12-20T16:08:18.518Z,101818.30
2018-12-20T16:10:47.203Z,101807.65
2018-12-20T16:13:15.863Z,101806.18
2018-12-20T16:15:44.601Z,101808.52
2018-12-20T16:18:13.336Z,101806.30
2018-12-20T16:20:42.024Z,101805.44
2018-12-20T16:23:10.668Z,101808.88
2018-12-20T16:25:39.524Z,101796.76
2018-12-20T16:28:08.169Z,101796.88
2018-12-20T16:30:37.187Z,101800.44
2018-12-20T16:33:05.933Z,101795.53
2018-12-20T16:35:34.626Z,101788.33
2018-12-20T16:38:03.366Z,101784.64
2018-12-20T16:40:32.046Z,101789.67
2018-12-20T16:43:00.808Z,101788.20
2018-12-20T16:45:29.507Z,101796.28
2018-12-20T16:47:58.303Z,101797.50
2018-12-20T16:50:26.976Z,101788.08
2018-12-20T16:52:55.680Z,101791.28
2018-12-20T16:55:24.432Z,101804.14
2018-12-20T16:57:53.107Z,101797.89
2018-12-20T17:00:21.918Z,101802.80
2018-12-20T17:02:50.648Z,101799.62
2018-12-20T17:05:19.474Z,101797.80
2018-12-20T17:07:48.194Z,101792.77
2018-12-20T17:10:16.885Z,101787.86
2018-12-20T17:12:45.676Z,101783.81
2018-12-20T17:15:16.433Z,101783.81
2018-12-20T17:17:45.404Z,101781.03
2018-12-20T17:20:14.076Z,101790.46
2018-12-20T17:22:42.716Z,101785.55
2018-12-20T17:25:11.568Z,101788.12
2018-12-20T17:27:40.255Z,101794.38
2018-12-20T17:30:10.422Z,101788.63
2018-12-20T17:32:39.124Z,101789.98
2018-12-20T17:35:07.777Z,101781.91
2018-12-20T17:37:36.435Z,101784.59
2018-12-20T17:40:05.536Z,101782.73
2018-12-20T17:42:34.891Z,101784.95
2018-12-20T17:45:03.604Z,101777.00
2018-12-20T17:47:32.406Z,101775.52
2018-12-20T17:50:01.097Z,101783.25
2018-12-20T17:52:29.958Z,101782.73
2018-12-20T17:54:58.643Z,101777.34
2018-12-20T17:57:27.375Z,101785.94
2018-12-20T17:59:56.218Z,101776.52
2018-12-20T18:02:24.921Z,101778.70
2018-12-20T18:04:53.633Z,101780.55
2018-12-20T18:07:22.464Z,101788.25
2018-12-20T18:09:51.307Z,101789.59
2018-12-20T18:12:20.153Z,101788.63
2018-12-20T18:14:48.852Z,101786.90
2018-12-20T18:17:17.612Z,101785.55
2018-12-20T18:19:46.233Z,101781.99
2018-12-20T18:22:14.941Z,101786.90
2018-12-20T18:24:43.613Z,101784.59
2018-12-20T18:27:12.277Z,101788.25
2018-12-20T18:29:40.907Z,101786.90
2018-12-20T18:32:09.582Z,101782.86
2018-12-20T18:34:38.304Z,101777.95
2018-12-20T18:37:06.954Z,101778.43
2018-12-20T18:39:35.684Z,101784.33
2018-12-20T18:42:04.317Z,101784.69
2018-12-20T18:44:32.974Z,101780.17
2018-12-20T18:47:01.689Z,101779.30
2018-12-20T18:49:30.384Z,101780.17
2018-12-20T18:51:59.143Z,101780.65
2018-12-20T18:54:27.794Z,101781.52
2018-12-20T18:56:56.453Z,101769.88
2018-12-20T18:59:25.217Z,101772.56
2018-12-20T19:01:53.891Z,101783.34
2018-12-20T19:04:22.560Z,101778.43
2018-12-20T19:06:51.174Z,101780.17
2018-12-20T19:09:19.949Z,101778.43
2018-12-20T19:11:48.679Z,101768.53
2018-12-20T19:14:17.369Z,101760.93
2018-12-20T19:16:46.256Z,101769.88
2018-12-20T19:19:15.078Z,101768.53
2018-12-20T19:21:43.708Z,101759.10
2018-12-20T19:24:13.245Z,101764.97
2018-12-20T19:26:41.951Z,101762.66
2018-12-20T19:29:10.708Z,101759.49
2018-12-20T19:31:39.727Z,101761.31
2018-12-20T19:34:08.604Z,101759.97
2018-12-20T19:36:37.371Z,101755.06
2018-12-20T19:39:09.625Z,101750.16
2018-12-20T19:41:38.330Z,101748.81
2018-12-20T19:44:07.071Z,101741.59
2018-12-20T19:46:35.703Z,101750.55
2018-12-20T19:49:04.676Z,101738.42
2018-12-20T19:51:33.361Z,101740.25
2018-12-20T19:54:02.046Z,101738.04
2018-12-20T19:56:30.707Z,101735.34
2018-12-20T19:58:59.428Z,101733.52
2018-12-20T20:01:28.079Z,101734.00
2018-12-20T20:03:56.765Z,101731.82
2018-12-20T20:06:25.453Z,101731.82
2018-12-20T20:08:54.158Z,101733.64
2018-12-20T20:11:22.883Z,101729.13
2018-12-20T20:13:51.984Z,101722.88
2018-12-20T20:16:20.623Z,101722.02
2018-12-20T20:18:49.267Z,101720.19
2018-12-20T20:21:17.939Z,101722.48
2018-12-20T20:23:46.858Z,101721.53
2018-12-20T20:26:15.577Z,101714.41
2018-12-20T20:28:44.270Z,101718.93
2018-12-20T20:31:13.364Z,101710.38
2018-12-20T20:33:42.100Z,101705.11
2018-12-20T20:36:11.858Z,101712.20
2018-12-20T20:38:40.620Z,101706.94
2018-12-20T20:41:09.443Z,101709.62
2018-12-20T20:43:38.157Z,101700.69
2018-12-20T20:46:07.168Z,101693.95
2018-12-20T20:48:35.888Z,101697.52
2018-12-20T20:51:04.746Z,101698.48
2018-12-20T20:58:30.990Z,101689.18
2018-12-20T21:03:27.276Z,101689.18
2018-12-20T21:05:56.070Z,101690.52
2018-12-20T21:10:52.587Z,101684.66
2018-12-20T21:13:21.444Z,101682.31
2018-12-20T21:15:50.186Z,101695.30
2018-12-20T21:18:18.977Z,101689.18
2018-12-20T21:20:47.669Z,101688.70
2018-12-20T21:23:16.402Z,101676.58
2018-12-20T21:25:45.126Z,101675.33
2018-12-20T21:28:13.850Z,101675.33
2018-12-20T21:30:42.633Z,101677.06
2018-12-20T21:33:11.351Z,101680.23
2018-12-20T21:35:40.194Z,101680.72
2018-12-20T21:38:08.940Z,101666.77
2018-12-20T21:40:37.709Z,101668.12
2018-12-20T21:43:06.430Z,101663.69
2018-12-20T21:45:35.187Z,101665.42
2018-12-20T21:48:04.084Z,101662.34
2018-12-20T21:50:38.895Z,101667.64
2018-12-20T21:53:03.569Z,101652.09
2018-12-20T21:55:32.304Z,101663.21
2018-12-20T21:58:01.216Z,101659.66
2018-12-20T22:00:29.896Z,101667.73
2018-12-20T22:02:58.575Z,101667.25
2018-12-20T22:05:27.438Z,101665.42
2018-12-20T22:07:56.156Z,101673.02
2018-12-20T22:10:24.874Z,101663.21
2018-12-20T22:12:53.692Z,101665.55
2018-12-20T22:15:22.355Z,101662.73
2018-12-20T22:17:50.994Z,101662.73
2018-12-20T22:20:19.745Z,101659.17
2018-12-20T22:22:48.647Z,101653.31
2018-12-20T22:25:17.366Z,101666.77
2018-12-20T22:27:46.066Z,101668.12
2018-12-20T22:30:14.769Z,101666.77
2018-12-20T22:32:43.423Z,101658.70
2018-12-20T22:35:12.238Z,101657.34
2018-12-20T22:37:40.912Z,101650.61
2018-12-20T22:40:09.794Z,101648.79
2018-12-20T22:42:38.514Z,101646.09
2018-12-20T22:45:08.716Z,101648.66
2018-12-20T22:47:37.495Z,101645.97
2018-12-20T22:50:08.280Z,101647.31
2018-12-20T22:52:37.091Z,101636.94
2018-12-20T22:55:06.303Z,101634.23
2018-12-20T22:57:35.444Z,101635.11
2018-12-20T23:00:05.657Z,101631.90
2018-12-20T23:02:34.507Z,101630.94
2018-12-20T23:05:03.341Z,101628.25
2018-12-20T23:07:32.018Z,101619.20
2018-12-20T23:10:00.654Z,101624.59
2018-12-20T23:12:29.335Z,101629.84
2018-12-20T23:14:58.087Z,101628.98
2018-12-20T23:17:26.813Z,101624.37
2018-12-20T23:19:55.515Z,101622.50
2018-12-20T23:22:24.928Z,101619.94
2018-12-20T23:24:53.606Z,101618.85
2018-12-20T23:27:22.299Z,101620.67
2018-12-20T23:29:50.930Z,101619.33
2018-12-20T23:32:19.549Z,101616.16
2018-12-20T23:34:48.205Z,101611.98
2018-12-20T23:37:16.984Z,101614.20
2018-12-20T23:39:45.687Z,101613.27
2018-12-20T23:42:15.461Z,101611.52
2018-12-20T23:44:44.174Z,101611.03
2018-12-20T23:47:12.838Z,101609.23
2018-12-20T23:49:41.676Z,101607.47
2018-12-20T23:52:10.370Z,101606.13
2018-12-20T23:54:39.002Z,101607.47
2018-12-20T23:57:07.791Z,101611.03
2018-12-20T23:59:36.527Z,101604.42
